Swissvale, Colorado
Current Conditions -  °F | °C
As of 3:55 PM on Thursday 27 Nov 2014 (Local Time) from KANK Reporting Station
Clear Clear  
Wind Chill: 56°   Ceiling: Unl
Heat Index: 56°   Visibility: 10mi
Dew Point: 14°   Wind: 18mph
Humidity: 19%   Direction: 260°W
Pressure: 30.38"   Gusts: 25mph
Location:  38.5561°N, 106.066°W
Report Text: KANK 272255Z AUTO 26016G22KT 10SM CLR 14/M10 A3038 RMK AO1 T01361098
Loading
Personal Weather Stations






























Interactive Weather Map New forecast layout! Learn more

10-Day Weather Forecast

Advertisements
Track Severe Weather on mobile